sensor_id;sensor_type;location;lat;lon;timestamp;pressure;altitude;pressure_sealevel;temperature;humidity
58875;BME280;44652;49.040;12.126;2024-01-16T06:05:01;96935.06;;;-2.51;87.06
58875;BME280;44652;49.040;12.126;2024-01-16T06:07:29;96935.94;;;-2.64;87.84
58875;BME280;44652;49.040;12.126;2024-01-16T06:09:56;96943.59;;;-2.52;88.09
58875;BME280;44652;49.040;12.126;2024-01-16T06:12:22;96974.38;;;-2.42;87.36
58875;BME280;44652;49.040;12.126;2024-01-16T06:14:49;96950.44;;;-2.53;88.54
58875;BME280;44652;49.040;12.126;2024-01-16T06:17:16;96973.38;;;-2.57;87.59
58875;BME280;44652;49.040;12.126;2024-01-16T06:19:42;96955.09;;;-2.60;87.18
58875;BME280;44652;49.040;12.126;2024-01-16T06:22:09;96970.47;;;-2.49;87.18
58875;BME280;44652;49.040;12.126;2024-01-16T06:24:36;96967.50;;;-2.41;87.20
58875;BME280;44652;49.040;12.126;2024-01-16T06:27:06;96962.25;;;-2.56;87.66
58875;BME280;44652;49.040;12.126;2024-01-16T06:29:33;96944.56;;;-2.63;87.41
58875;BME280;44652;49.040;12.126;2024-01-16T06:32:01;96949.31;;;-2.70;87.31
58875;BME280;44652;49.040;12.126;2024-01-16T06:34:28;96964.16;;;-2.54;87.43
58875;BME280;44652;49.040;12.126;2024-01-16T06:36:55;96971.59;;;-2.45;86.62
58875;BME280;44652;49.040;12.126;2024-01-16T06:39:22;96965.41;;;-2.60;87.49
58875;BME280;44652;49.040;12.126;2024-01-16T06:41:48;96969.97;;;-2.43;87.94
58875;BME280;44652;49.040;12.126;2024-01-16T06:44:18;96967.22;;;-2.46;87.03
58875;BME280;44652;49.040;12.126;2024-01-16T06:46:45;96949.56;;;-2.53;87.58
58875;BME280;44652;49.040;12.126;2024-01-16T06:49:15;96950.53;;;-2.64;87.62
58875;BME280;44652;49.040;12.126;2024-01-16T06:51:44;96965.91;;;-2.39;87.13
58875;BME280;44652;49.040;12.126;2024-01-16T06:54:11;96968.97;;;-2.32;87.18
58875;BME280;44652;49.040;12.126;2024-01-16T06:56:38;96960.47;;;-2.31;86.99
58875;BME280;44652;49.040;12.126;2024-01-16T06:59:04;96957.06;;;-2.43;86.61
58875;BME280;44652;49.040;12.126;2024-01-16T07:01:35;96952.59;;;-2.59;87.00
58875;BME280;44652;49.040;12.126;2024-01-16T07:04:02;96971.63;;;-2.70;86.60
58875;BME280;44652;49.040;12.126;2024-01-16T07:06:29;96957.56;;;-2.62;86.42
58875;BME280;44652;49.040;12.126;2024-01-16T07:08:56;96977.59;;;-2.58;86.26
58875;BME280;44652;49.040;12.126;2024-01-16T07:11:22;96978.53;;;-2.57;86.02
58875;BME280;44652;49.040;12.126;2024-01-16T07:13:50;96982.75;;;-2.58;86.81
58875;BME280;44652;49.040;12.126;2024-01-16T07:16:17;96982.06;;;-2.55;87.07
58875;BME280;44652;49.040;12.126;2024-01-16T07:18:44;96969.28;;;-2.67;86.17
58875;BME280;44652;49.040;12.126;2024-01-16T07:21:18;96972.84;;;-2.52;86.72
58875;BME280;44652;49.040;12.126;2024-01-16T07:23:45;96982.88;;;-2.56;86.73
58875;BME280;44652;49.040;12.126;2024-01-16T07:26:11;96967.28;;;-2.58;86.49
58875;BME280;44652;49.040;12.126;2024-01-16T07:28:38;96973.97;;;-2.61;87.14
58875;BME280;44652;49.040;12.126;2024-01-16T07:31:05;96966.00;;;-2.64;85.96
58875;BME280;44652;49.040;12.126;2024-01-16T07:33:32;96937.13;;;-2.72;85.64
58875;BME280;44652;49.040;12.126;2024-01-16T07:35:59;96968.28;;;-2.56;85.67
58875;BME280;44652;49.040;12.126;2024-01-16T07:38:26;96946.56;;;-2.59;86.14
58875;BME280;44652;49.040;12.126;2024-01-16T07:40:53;96956.50;;;-2.52;85.90
58875;BME280;44652;49.040;12.126;2024-01-16T07:43:20;96974.03;;;-2.60;86.30
58875;BME280;44652;49.040;12.126;2024-01-16T07:45:47;96978.69;;;-2.54;86.26
58875;BME280;44652;49.040;12.126;2024-01-16T07:48:14;96975.13;;;-2.56;86.41
58875;BME280;44652;49.040;12.126;2024-01-16T07:50:41;96967.00;;;-2.49;85.28
58875;BME280;44652;49.040;12.126;2024-01-16T07:53:08;96945.75;;;-2.58;85.61
58875;BME280;44652;49.040;12.126;2024-01-16T07:55:35;96937.81;;;-2.75;86.30
58875;BME280;44652;49.040;12.126;2024-01-16T07:58:02;96973.13;;;-2.87;87.87
58875;BME280;44652;49.040;12.126;2024-01-16T08:00:31;96966.84;;;-2.90;87.83
58875;BME280;44652;49.040;12.126;2024-01-16T08:02:58;96967.19;;;-2.73;86.56
58875;BME280;44652;49.040;12.126;2024-01-16T08:05:24;96979.19;;;-2.60;86.48
58875;BME280;44652;49.040;12.126;2024-01-16T08:07:54;96963.44;;;-2.51;85.69
58875;BME280;44652;49.040;12.126;2024-01-16T08:10:21;96980.59;;;-2.52;85.69
58875;BME280;44652;49.040;12.126;2024-01-16T08:12:47;96963.34;;;-2.53;85.51
58875;BME280;44652;49.040;12.126;2024-01-16T08:15:14;96973.25;;;-2.32;85.52
58875;BME280;44652;49.040;12.126;2024-01-16T08:17:41;96982.59;;;-2.21;84.55
58875;BME280;44652;49.040;12.126;2024-01-16T08:20:08;96961.13;;;-2.47;84.19
58875;BME280;44652;49.040;12.126;2024-01-16T08:22:39;96990.03;;;-2.39;84.05
58875;BME280;44652;49.040;12.126;2024-01-16T08:25:06;96986.44;;;-2.28;83.49
58875;BME280;44652;49.040;12.126;2024-01-16T08:27:34;96979.53;;;-2.42;83.29
58875;BME280;44652;49.040;12.126;2024-01-16T08:30:00;96990.13;;;-2.37;84.23
58875;BME280;44652;49.040;12.126;2024-01-16T08:32:27;97000.16;;;-2.42;82.78
58875;BME280;44652;49.040;12.126;2024-01-16T08:34:54;97008.88;;;-2.53;84.08
58875;BME280;44652;49.040;12.126;2024-01-16T08:37:21;97002.06;;;-2.26;83.57
58875;BME280;44652;49.040;12.126;2024-01-16T08:39:47;96996.78;;;-2.41;84.13
58875;BME280;44652;49.040;12.126;2024-01-16T08:42:14;96996.50;;;-2.19;83.03
58875;BME280;44652;49.040;12.126;2024-01-16T08:44:41;96998.56;;;-2.40;83.66
58875;BME280;44652;49.040;12.126;2024-01-16T08:47:08;96996.19;;;-2.37;83.93
58875;BME280;44652;49.040;12.126;2024-01-16T08:49:35;96976.72;;;-2.58;84.58
58875;BME280;44652;49.040;12.126;2024-01-16T08:52:05;96981.28;;;-2.28;83.20
58875;BME280;44652;49.040;12.126;2024-01-16T08:54:32;96997.09;;;-1.97;81.95
58875;BME280;44652;49.040;12.126;2024-01-16T08:56:59;96965.72;;;-2.29;84.49
58875;BME280;44652;49.040;12.126;2024-01-16T08:59:25;96991.41;;;-1.91;82.57
58875;BME280;44652;49.040;12.126;2024-01-16T09:01:52;96991.00;;;-1.84;81.54
58875;BME280;44652;49.040;12.126;2024-01-16T09:04:19;96973.16;;;-2.07;81.40
58875;BME280;44652;49.040;12.126;2024-01-16T09:06:46;96974.06;;;-2.07;82.10
58875;BME280;44652;49.040;12.126;2024-01-16T09:09:13;96983.84;;;-1.88;82.51
58875;BME280;44652;49.040;12.126;2024-01-16T09:11:39;96965.09;;;-1.99;82.06
58875;BME280;44652;49.040;12.126;2024-01-16T09:14:06;96969.25;;;-1.87;82.10
58875;BME280;44652;49.040;12.126;2024-01-16T09:16:33;96961.38;;;-1.62;81.48
58875;BME280;44652;49.040;12.126;2024-01-16T09:19:00;96955.88;;;-1.67;83.09
58875;BME280;44652;49.040;12.126;2024-01-16T09:21:27;96957.16;;;-1.60;82.01
58875;BME280;44652;49.040;12.126;2024-01-16T09:23:54;96952.47;;;-1.53;79.70
58875;BME280;44652;49.040;12.126;2024-01-16T09:26:21;96957.38;;;-1.71;82.00
58875;BME280;44652;49.040;12.126;2024-01-16T09:28:48;96976.00;;;-1.48;81.08
58875;BME280;44652;49.040;12.126;2024-01-16T09:31:15;96967.84;;;-1.41;80.92
58875;BME280;44652;49.040;12.126;2024-01-16T09:33:42;96973.66;;;-1.30;81.20
58875;BME280;44652;49.040;12.126;2024-01-16T09:36:10;96956.81;;;-1.38;80.14
58875;BME280;44652;49.040;12.126;2024-01-16T09:38:37;96986.59;;;-1.02;78.79
58875;BME280;44652;49.040;12.126;2024-01-16T09:41:04;96972.78;;;-1.31;79.95
58875;BME280;44652;49.040;12.126;2024-01-16T09:43:31;96971.31;;;-1.40;80.78
58875;BME280;44652;49.040;12.126;2024-01-16T09:46:00;96971.91;;;-1.44;81.07
58875;BME280;44652;49.040;12.126;2024-01-16T09:48:30;96968.75;;;-1.26;80.82
58875;BME280;44652;49.040;12.126;2024-01-16T09:50:58;96962.25;;;-1.34;80.97
58875;BME280;44652;49.040;12.126;2024-01-16T09:53:25;96957.50;;;-1.13;79.92
58875;BME280;44652;49.040;12.126;2024-01-16T09:55:54;96968.63;;;-1.14;80.07
58875;BME280;44652;49.040;12.126;2024-01-16T09:58:22;96959.09;;;-1.15;81.01
58875;BME280;44652;49.040;12.126;2024-01-16T10:00:52;96981.16;;;-0.77;78.60
58875;BME280;44652;49.040;12.126;2024-01-16T10:03:19;96959.19;;;-1.13;79.50
58875;BME280;44652;49.040;12.126;2024-01-16T10:05:48;96977.88;;;-1.32;79.88
58875;BME280;44652;49.040;12.126;2024-01-16T10:08:15;96975.44;;;-1.29;80.05
58875;BME280;44652;49.040;12.126;2024-01-16T10:10:42;96971.19;;;-1.14;78.97
58875;BME280;44652;49.040;12.126;2024-01-16T10:13:16;96950.47;;;-1.01;78.88
58875;BME280;44652;49.040;12.126;2024-01-16T10:15:44;96951.72;;;-1.09;79.82
58875;BME280;44652;49.040;12.126;2024-01-16T10:18:31;96968.81;;;-1.11;80.26
58875;BME280;44652;49.040;12.126;2024-01-16T10:20:58;96963.38;;;-1.15;79.58
58875;BME280;44652;49.040;12.126;2024-01-16T10:23:26;96968.66;;;-0.99;79.56
58875;BME280;44652;49.040;12.126;2024-01-16T10:26:10;96966.88;;;-1.00;81.56
58875;BME280;44652;49.040;12.126;2024-01-16T10:28:39;96960.66;;;-0.89;81.30
58875;BME280;44652;49.040;12.126;2024-01-16T10:31:07;96968.66;;;-0.99;81.12
58875;BME280;44652;49.040;12.126;2024-01-16T10:33:35;96948.09;;;-1.26;80.95
58875;BME280;44652;49.040;12.126;2024-01-16T10:36:15;96975.78;;;-1.10;80.66
58875;BME280;44652;49.040;12.126;2024-01-16T10:38:44;96994.59;;;-1.12;80.90
58875;BME280;44652;49.040;12.126;2024-01-16T10:43:41;96997.22;;;-0.83;80.18
58875;BME280;44652;49.040;12.126;2024-01-16T10:46:16;96982.38;;;-1.00;79.56
58875;BME280;44652;49.040;12.126;2024-01-16T10:48:44;96998.16;;;-0.95;80.54
58875;BME280;44652;49.040;12.126;2024-01-16T10:51:14;97001.88;;;-0.77;79.64
58875;BME280;44652;49.040;12.126;2024-01-16T10:53:42;96978.38;;;-0.95;79.73
58875;BME280;44652;49.040;12.126;2024-01-16T10:56:13;96997.94;;;-0.85;80.45
58875;BME280;44652;49.040;12.126;2024-01-16T10:58:42;96985.38;;;-0.64;80.30
58875;BME280;44652;49.040;12.126;2024-01-16T11:01:11;96986.88;;;-0.83;79.83
58875;BME280;44652;49.040;12.126;2024-01-16T11:03:49;96991.47;;;-1.07;80.05
58875;BME280;44652;49.040;12.126;2024-01-16T11:06:17;96993.22;;;-0.63;78.83
58875;BME280;44652;49.040;12.126;2024-01-16T11:08:46;96999.84;;;-0.68;80.19
58875;BME280;44652;49.040;12.126;2024-01-16T11:11:14;96989.75;;;-0.78;80.24
58875;BME280;44652;49.040;12.126;2024-01-16T11:13:41;96990.88;;;-0.88;80.09
58875;BME280;44652;49.040;12.126;2024-01-16T11:16:11;96993.13;;;-0.79;80.76
58875;BME280;44652;49.040;12.126;2024-01-16T11:18:39;96982.50;;;-0.84;80.68
58875;BME280;44652;49.040;12.126;2024-01-16T11:21:08;96973.16;;;-0.67;80.20
58875;BME280;44652;49.040;12.126;2024-01-16T11:23:42;96986.28;;;-0.64;79.03
58875;BME280;44652;49.040;12.126;2024-01-16T11:31:55;96989.81;;;-0.17;76.89
58875;BME280;44652;49.040;12.126;2024-01-16T11:37:15;96957.56;;;-0.08;75.40
58875;BME280;44652;49.040;12.126;2024-01-16T11:39:44;96962.31;;;-0.15;76.61
58875;BME280;44652;49.040;12.126;2024-01-16T11:42:25;96965.25;;;-0.09;76.17
58875;BME280;44652;49.040;12.126;2024-01-16T11:44:53;96943.00;;;-0.06;74.91
58875;BME280;44652;49.040;12.126;2024-01-16T11:47:23;96961.16;;;-0.20;77.27
58875;BME280;44652;49.040;12.126;2024-01-16T11:49:52;96950.66;;;0.08;77.16
58875;BME280;44652;49.040;12.126;2024-01-16T11:52:44;96932.84;;;0.14;74.99
58875;BME280;44652;49.040;12.126;2024-01-16T11:55:34;96927.88;;;-0.29;76.31
58875;BME280;44652;49.040;12.126;2024-01-16T12:00:54;96927.78;;;0.32;74.33
58875;BME280;44652;49.040;12.126;2024-01-16T12:03:24;96914.25;;;0.37;73.69
58875;BME280;44652;49.040;12.126;2024-01-16T12:06:01;96937.56;;;0.21;75.30
58875;BME280;44652;49.040;12.126;2024-01-16T12:08:30;96926.19;;;0.50;72.56
58875;BME280;44652;49.040;12.126;2024-01-16T12:10:56;96912.47;;;0.53;71.77
58875;BME280;44652;49.040;12.126;2024-01-16T12:13:26;96907.78;;;0.29;74.77
58875;BME280;44652;49.040;12.126;2024-01-16T12:16:03;96923.53;;;0.65;74.19
58875;BME280;44652;49.040;12.126;2024-01-16T12:18:32;96901.25;;;0.68;73.23
58875;BME280;44652;49.040;12.126;2024-01-16T12:21:12;96919.28;;;0.83;70.87
58875;BME280;44652;49.040;12.126;2024-01-16T12:23:42;96900.28;;;0.50;72.22
58875;BME280;44652;49.040;12.126;2024-01-16T12:26:22;96904.72;;;0.36;72.50
58875;BME280;44652;49.040;12.126;2024-01-16T12:28:53;96904.72;;;0.69;71.72
58875;BME280;44652;49.040;12.126;2024-01-16T12:31:27;96900.63;;;0.09;74.06
58875;BME280;44652;49.040;12.126;2024-01-16T12:34:04;96888.09;;;0.49;70.79
58875;BME280;44652;49.040;12.126;2024-01-16T12:36:32;96891.34;;;0.29;72.75
58875;BME280;44652;49.040;12.126;2024-01-16T12:38:59;96876.44;;;0.41;73.50
58875;BME280;44652;49.040;12.126;2024-01-16T12:41:34;96873.78;;;0.39;70.65
58875;BME280;44652;49.040;12.126;2024-01-16T12:44:08;96891.16;;;0.26;71.35
58875;BME280;44652;49.040;12.126;2024-01-16T12:46:44;96869.72;;;0.28;73.66
58875;BME280;44652;49.040;12.126;2024-01-16T12:49:12;96874.00;;;0.60;72.03
58875;BME280;44652;49.040;12.126;2024-01-16T12:51:39;96847.78;;;0.54;71.76
58875;BME280;44652;49.040;12.126;2024-01-16T12:54:13;96842.19;;;0.14;71.95
58875;BME280;44652;49.040;12.126;2024-01-16T12:56:41;96863.81;;;0.31;72.68
58875;BME280;44652;49.040;12.126;2024-01-16T12:59:09;96861.63;;;0.55;71.35
58875;BME280;44652;49.040;12.126;2024-01-16T13:01:39;96848.19;;;0.29;73.00
58875;BME280;44652;49.040;12.126;2024-01-16T13:04:08;96846.22;;;0.41;73.43
58875;BME280;44652;49.040;12.126;2024-01-16T13:06:36;96847.47;;;0.15;73.62
58875;BME280;44652;49.040;12.126;2024-01-16T13:09:11;96845.06;;;0.04;73.39
58875;BME280;44652;49.040;12.126;2024-01-16T13:11:55;96820.28;;;-0.24;74.40
58875;BME280;44652;49.040;12.126;2024-01-16T13:14:22;96841.06;;;0.09;74.76
58875;BME280;44652;49.040;12.126;2024-01-16T13:16:51;96830.69;;;0.25;76.43
58875;BME280;44652;49.040;12.126;2024-01-16T13:19:18;96837.81;;;0.29;76.99
58875;BME280;44652;49.040;12.126;2024-01-16T13:21:48;96817.97;;;-0.03;73.21
58875;BME280;44652;49.040;12.126;2024-01-16T13:24:15;96833.69;;;0.00;74.96
58875;BME280;44652;49.040;12.126;2024-01-16T13:26:44;96816.09;;;-0.06;75.07
58875;BME280;44652;49.040;12.126;2024-01-16T13:29:10;96822.56;;;-0.30;74.78
58875;BME280;44652;49.040;12.126;2024-01-16T13:31:37;96820.44;;;-0.21;77.79
58875;BME280;44652;49.040;12.126;2024-01-16T13:34:05;96820.25;;;-0.40;79.12
58875;BME280;44652;49.040;12.126;2024-01-16T13:36:32;96816.25;;;-0.19;80.34
58875;BME280;44652;49.040;12.126;2024-01-16T13:39:19;96838.63;;;0.12;79.03
58875;BME280;44652;49.040;12.126;2024-01-16T13:41:47;96808.97;;;0.07;80.61
58875;BME280;44652;49.040;12.126;2024-01-16T13:44:14;96808.41;;;-0.04;77.46
58875;BME280;44652;49.040;12.126;2024-01-16T13:46:41;96809.56;;;0.01;78.00
58875;BME280;44652;49.040;12.126;2024-01-16T13:49:26;96811.25;;;0.17;80.17
58875;BME280;44652;49.040;12.126;2024-01-16T13:51:53;96813.22;;;0.05;79.71
58875;BME280;44652;49.040;12.126;2024-01-16T13:54:20;96814.97;;;0.06;81.04
58875;BME280;44652;49.040;12.126;2024-01-16T13:56:47;96814.00;;;0.04;81.86
58875;BME280;44652;49.040;12.126;2024-01-16T13:59:31;96814.34;;;0.10;78.27
58875;BME280;44652;49.040;12.126;2024-01-16T14:01:58;96826.88;;;0.02;80.06
58875;BME280;44652;49.040;12.126;2024-01-16T14:04:25;96815.25;;;-0.37;77.34
58875;BME280;44652;49.040;12.126;2024-01-16T14:06:52;96828.63;;;-0.30;81.21
58875;BME280;44652;49.040;12.126;2024-01-16T14:09:38;96811.28;;;-0.62;81.40
58875;BME280;44652;49.040;12.126;2024-01-16T14:12:05;96800.88;;;-0.63;82.86
58875;BME280;44652;49.040;12.126;2024-01-16T14:14:35;96784.19;;;-0.68;85.35
58875;BME280;44652;49.040;12.126;2024-01-16T14:17:02;96799.47;;;-0.88;83.18
58875;BME280;44652;49.040;12.126;2024-01-16T14:19:29;96786.94;;;-1.11;83.65
58875;BME280;44652;49.040;12.126;2024-01-16T14:21:57;96803.25;;;-0.98;84.56
58875;BME280;44652;49.040;12.126;2024-01-16T14:24:25;96786.66;;;-1.01;84.12
58875;BME280;44652;49.040;12.126;2024-01-16T14:26:52;96799.16;;;-0.94;81.93
58875;BME280;44652;49.040;12.126;2024-01-16T14:29:19;96792.53;;;-0.89;82.93
58875;BME280;44652;49.040;12.126;2024-01-16T14:31:46;96804.56;;;-0.89;84.01
58875;BME280;44652;49.040;12.126;2024-01-16T14:34:16;96806.28;;;-0.90;83.79
58875;BME280;44652;49.040;12.126;2024-01-16T14:36:45;96802.56;;;-1.10;82.91
58875;BME280;44652;49.040;12.126;2024-01-16T14:39:12;96805.22;;;-0.93;85.73
58875;BME280;44652;49.040;12.126;2024-01-16T14:41:48;96795.94;;;-1.19;83.57
58875;BME280;44652;49.040;12.126;2024-01-16T14:44:15;96792.22;;;-1.10;85.11
58875;BME280;44652;49.040;12.126;2024-01-16T14:46:42;96797.28;;;-1.26;84.56
58875;BME280;44652;49.040;12.126;2024-01-16T14:49:16;96795.50;;;-1.12;83.65
58875;BME280;44652;49.040;12.126;2024-01-16T14:51:43;96791.16;;;-1.13;85.06
58875;BME280;44652;49.040;12.126;2024-01-16T14:54:10;96788.13;;;-1.21;84.58
58875;BME280;44652;49.040;12.126;2024-01-16T14:56:37;96795.88;;;-1.36;84.22
58875;BME280;44652;49.040;12.126;2024-01-16T14:59:04;96802.63;;;-1.23;85.83
58875;BME280;44652;49.040;12.126;2024-01-16T15:01:33;96774.03;;;-1.41;85.06
58875;BME280;44652;49.040;12.126;2024-01-16T15:04:16;96773.69;;;-1.47;85.06
58875;BME280;44652;49.040;12.126;2024-01-16T15:06:43;96789.72;;;-1.38;85.52
58875;BME280;44652;49.040;12.126;2024-01-16T15:09:10;96805.13;;;-1.39;84.63
58875;BME280;44652;49.040;12.126;2024-01-16T15:11:39;96801.81;;;-1.37;85.75
58875;BME280;44652;49.040;12.126;2024-01-16T15:14:06;96799.22;;;-1.52;85.40
58875;BME280;44652;49.040;12.126;2024-01-16T15:16:35;96789.63;;;-1.54;86.30
58875;BME280;44652;49.040;12.126;2024-01-16T15:19:02;96793.44;;;-1.62;85.67
58875;BME280;44652;49.040;12.126;2024-01-16T15:21:30;96797.38;;;-1.54;86.95
58875;BME280;44652;49.040;12.126;2024-01-16T15:23:57;96793.09;;;-1.54;87.03
58875;BME280;44652;49.040;12.126;2024-01-16T15:27:17;96763.41;;;-1.60;87.89
58875;BME280;44652;49.040;12.126;2024-01-16T15:29:59;96802.63;;;-1.38;85.78
58875;BME280;44652;49.040;12.126;2024-01-16T15:32:26;96807.81;;;-1.38;87.20
58875;BME280;44652;49.040;12.126;2024-01-16T15:35:11;96789.63;;;-1.54;84.87
58875;BME280;44652;49.040;12.126;2024-01-16T15:37:38;96792.91;;;-1.57;85.22
58875;BME280;44652;49.040;12.126;2024-01-16T15:40:05;96797.63;;;-1.50;85.79
58875;BME280;44652;49.040;12.126;2024-01-16T15:42:33;96793.97;;;-1.53;84.87
58875;BME280;44652;49.040;12.126;2024-01-16T15:45:03;96779.91;;;-1.58;88.48
58875;BME280;44652;49.040;12.126;2024-01-16T15:47:31;96761.44;;;-1.79;85.88
58875;BME280;44652;49.040;12.126;2024-01-16T15:49:59;96791.13;;;-1.58;86.51
58875;BME280;44652;49.040;12.126;2024-01-16T15:52:25;96788.88;;;-1.52;85.90
58875;BME280;44652;49.040;12.126;2024-01-16T15:54:55;96777.19;;;-1.75;86.25
58875;BME280;44652;49.040;12.126;2024-01-16T15:57:32;96770.25;;;-1.76;85.94
58875;BME280;44652;49.040;12.126;2024-01-16T15:59:59;96776.22;;;-1.77;85.88
58875;BME280;44652;49.040;12.126;2024-01-16T16:02:26;96798.31;;;-1.67;86.88
58875;BME280;44652;49.040;12.126;2024-01-16T16:04:53;96762.47;;;-2.05;85.97
58875;BME280;44652;49.040;12.126;2024-01-16T16:08:05;96810.69;;;-1.76;87.48
58875;BME280;44652;49.040;12.126;2024-01-16T16:10:32;96813.66;;;-1.70;86.84
58875;BME280;44652;49.040;12.126;2024-01-16T16:12:58;96810.97;;;-1.72;86.50
58875;BME280;44652;49.040;12.126;2024-01-16T16:15:26;96814.00;;;-1.64;87.29
58875;BME280;44652;49.040;12.126;2024-01-16T16:17:55;96793.78;;;-1.71;87.64
58875;BME280;44652;49.040;12.126;2024-01-16T16:21:15;96817.41;;;-1.65;87.34
58875;BME280;44652;49.040;12.126;2024-01-16T16:23:45;96781.56;;;-1.88;85.74
58875;BME280;44652;49.040;12.126;2024-01-16T16:27:51;96817.13;;;-1.69;88.78
58875;BME280;44652;49.040;12.126;2024-01-16T16:30:21;96799.06;;;-1.69;90.55
58875;BME280;44652;49.040;12.126;2024-01-16T16:32:47;96796.50;;;-1.83;88.59
58875;BME280;44652;49.040;12.126;2024-01-16T16:35:14;96799.44;;;-1.91;88.06
58875;BME280;44652;49.040;12.126;2024-01-16T16:45:44;96798.06;;;-1.72;90.43
58875;BME280;44652;49.040;12.126;2024-01-16T16:48:14;96814.28;;;-1.74;87.11
58875;BME280;44652;49.040;12.126;2024-01-16T16:50:43;96796.91;;;-1.77;88.93
58875;BME280;44652;49.040;12.126;2024-01-16T16:53:10;96798.44;;;-1.65;90.39
58875;BME280;44652;49.040;12.126;2024-01-16T16:55:37;96793.94;;;-1.83;87.29
58875;BME280;44652;49.040;12.126;2024-01-16T16:58:05;96822.28;;;-1.69;86.39
58875;BME280;44652;49.040;12.126;2024-01-16T17:00:34;96809.34;;;-1.84;86.35
58875;BME280;44652;49.040;12.126;2024-01-16T17:03:01;96804.22;;;-1.69;88.42
58875;BME280;44652;49.040;12.126;2024-01-16T17:05:30;96808.56;;;-1.68;87.13
58875;BME280;44652;49.040;12.126;2024-01-16T17:07:57;96794.09;;;-1.94;87.38
58875;BME280;44652;49.040;12.126;2024-01-16T17:10:24;96803.34;;;-1.98;86.71
58875;BME280;44652;49.040;12.126;2024-01-16T17:12:50;96815.41;;;-1.84;87.10
58875;BME280;44652;49.040;12.126;2024-01-16T17:15:17;96804.44;;;-1.80;89.99
58875;BME280;44652;49.040;12.126;2024-01-16T17:17:44;96822.66;;;-1.63;89.11
58875;BME280;44652;49.040;12.126;2024-01-16T17:20:11;96830.81;;;-1.71;87.35
58875;BME280;44652;49.040;12.126;2024-01-16T17:22:43;96817.03;;;-1.71;94.95
58875;BME280;44652;49.040;12.126;2024-01-16T17:25:10;96812.75;;;-1.71;90.37
58875;BME280;44652;49.040;12.126;2024-01-16T17:27:37;96817.81;;;-1.72;87.48
58875;BME280;44652;49.040;12.126;2024-01-16T17:30:05;96816.94;;;-1.73;88.13
58875;BME280;44652;49.040;12.126;2024-01-16T17:32:34;96813.72;;;-1.83;87.87
58875;BME280;44652;49.040;12.126;2024-01-16T17:35:05;96818.88;;;-1.83;88.81
58875;BME280;44652;49.040;12.126;2024-01-16T17:37:32;96820.91;;;-1.92;89.26
58875;BME280;44652;49.040;12.126;2024-01-16T17:39:58;96811.91;;;-2.12;89.90
58875;BME280;44652;49.040;12.126;2024-01-16T17:42:28;96829.69;;;-2.04;89.68
58875;BME280;44652;49.040;12.126;2024-01-16T17:44:54;96822.63;;;-2.06;89.77
58875;BME280;44652;49.040;12.126;2024-01-16T17:47:25;96834.56;;;-2.08;90.44
58875;BME280;44652;49.040;12.126;2024-01-16T17:49:52;96817.38;;;-2.08;93.15
58875;BME280;44652;49.040;12.126;2024-01-16T17:52:24;96829.00;;;-1.86;91.50
58875;BME280;44652;49.040;12.126;2024-01-16T17:54:52;96819.72;;;-1.98;91.30
58875;BME280;44652;49.040;12.126;2024-01-16T17:57:19;96833.44;;;-1.99;91.18
58875;BME280;44652;49.040;12.126;2024-01-16T17:59:45;96819.84;;;-1.96;91.89
58875;BME280;44652;49.040;12.126;2024-01-16T18:02:12;96808.50;;;-2.26;91.35
58875;BME280;44652;49.040;12.126;2024-01-16T18:04:40;96827.31;;;-2.14;92.25
58875;BME280;44652;49.040;12.126;2024-01-16T18:07:08;96810.16;;;-2.13;92.56
58875;BME280;44652;49.040;12.126;2024-01-16T18:09:34;96818.91;;;-2.25;92.72
58875;BME280;44652;49.040;12.126;2024-01-16T18:12:01;96818.31;;;-2.21;93.05
58875;BME280;44652;49.040;12.126;2024-01-16T18:14:29;96816.50;;;-2.08;92.92
58875;BME280;44652;49.040;12.126;2024-01-16T18:16:56;96801.19;;;-2.05;94.19
58875;BME280;44652;49.040;12.126;2024-01-16T18:19:23;96794.72;;;-2.27;93.16
58875;BME280;44652;49.040;12.126;2024-01-16T18:21:53;96785.97;;;-2.29;91.75
58875;BME280;44652;49.040;12.126;2024-01-16T18:24:23;96794.94;;;-2.37;93.00
58875;BME280;44652;49.040;12.126;2024-01-16T18:26:50;96793.72;;;-2.29;93.30
58875;BME280;44652;49.040;12.126;2024-01-16T18:29:17;96808.84;;;-2.07;93.82
58875;BME280;44652;49.040;12.126;2024-01-16T18:31:47;96795.56;;;-2.54;93.13
58875;BME280;44652;49.040;12.126;2024-01-16T18:34:14;96814.03;;;-2.20;94.23
58875;BME280;44652;49.040;12.126;2024-01-16T18:36:51;96784.56;;;-2.52;93.23
58875;BME280;44652;49.040;12.126;2024-01-16T18:39:18;96797.03;;;-2.16;94.88
58875;BME280;44652;49.040;12.126;2024-01-16T18:41:47;96777.69;;;-2.51;93.63
58875;BME280;44652;49.040;12.126;2024-01-16T18:44:18;96800.78;;;-2.26;94.80
58875;BME280;44652;49.040;12.126;2024-01-16T18:46:45;96804.44;;;-2.23;93.92
58875;BME280;44652;49.040;12.126;2024-01-16T18:49:12;96805.88;;;-2.41;94.13
58875;BME280;44652;49.040;12.126;2024-01-16T18:51:39;96787.47;;;-2.32;95.22
58875;BME280;44652;49.040;12.126;2024-01-16T18:54:06;96801.44;;;-2.15;94.85
58875;BME280;44652;49.040;12.126;2024-01-16T18:56:33;96781.00;;;-2.26;94.55
58875;BME280;44652;49.040;12.126;2024-01-16T18:59:00;96773.63;;;-2.48;93.08
58875;BME280;44652;49.040;12.126;2024-01-16T19:01:31;96784.28;;;-2.28;94.44
58875;BME280;44652;49.040;12.126;2024-01-16T19:03:58;96778.09;;;-2.45;93.47
58875;BME280;44652;49.040;12.126;2024-01-16T19:06:24;96795.22;;;-2.32;93.66
58875;BME280;44652;49.040;12.126;2024-01-16T19:08:51;96771.50;;;-2.68;92.97
58875;BME280;44652;49.040;12.126;2024-01-16T19:11:19;96772.78;;;-2.61;94.24
58875;BME280;44652;49.040;12.126;2024-01-16T19:13:45;96770.63;;;-2.68;93.29
58875;BME280;44652;49.040;12.126;2024-01-16T19:16:15;96789.31;;;-2.58;94.36
58875;BME280;44652;49.040;12.126;2024-01-16T19:18:42;96774.44;;;-2.62;93.72
58875;BME280;44652;49.040;12.126;2024-01-16T19:21:10;96782.50;;;-2.71;93.88
58875;BME280;44652;49.040;12.126;2024-01-16T19:23:37;96760.50;;;-2.92;93.98
58875;BME280;44652;49.040;12.126;2024-01-16T19:26:04;96767.44;;;-2.78;95.38
58875;BME280;44652;49.040;12.126;2024-01-16T19:28:31;96769.81;;;-2.81;94.82